Latest Coastal Weather Observations for Redcliffe

IDQ60701

Issued at 8:42 pm EST Saturday 30 May 2015 (issued every 10 minutes, with the page automatically refreshed every 10 minutes)

About coastal observations | Map of coastal stations | Coastal observations for QLD | Marine services | Other Formats
Station Details ID: 040958 Name: REDCLIFFE Lat: -27.22 Lon: 153.09 Height: 12.6 m
Data from the previous 72 hours. | See also: Recent months at Redcliffe
Date/Time
EST
Temp

°C
Wind Pressure Rain
since 9am
mm
Weather Cloud Vis
km
Sea
Height
m
Swell
Dir
 
Speed
knots
Gust
knots
hPa Trend Height
m
Period
s
Dir
30/08:30pm 19.7 NNW 5 7 1019.4 - 0.0 - - - - - - -
30/08:00pm 19.7 WNW 4 5 1019.5 - 0.0 - - - - - - -
30/07:30pm 20.0 NNW 4 5 1019.5 - 0.0 - - - - - - -
30/07:00pm 20.3 N 5 7 1019.4 - 0.0 - - - - - - -
30/06:30pm 20.5 N 7 8 1019.3 - 0.0 - - - - - - -
30/06:00pm 21.0 N 7 8 1019.1 - 0.0 - - - - - - -
30/05:30pm 21.4 N 7 8 1018.8 - 0.0 - - - - - - -
30/05:00pm 21.9 NNE 8 8 1018.8 - 0.0 - - - - - - -
30/04:30pm 22.3 NNE 7 8 1018.7 - 0.0 - - - - - - -
30/04:00pm 22.8 NNE 7 8 1018.4 - 0.0 - - - - - - -
30/03:30pm 22.8 NE 7 8 1018.4 - 0.0 - - - - - - -
30/03:00pm 22.8 NE 8 9 1018.4 - 0.0 - - - - - - -
30/02:00pm 23.0 ENE 7 8 1018.6 - 0.0 - - - - - - -
30/01:30pm 23.4 ENE 6 7 1018.8 - 0.0 - - - - - - -
30/01:00pm 24.3 E 5 6 1019.3 - 0.0 - - - - - - -
30/12:30pm 24.1 ENE 5 5 1019.7 - 0.0 - - - - - - -
30/12:00pm 23.8 ENE 6 6 1020.2 - 0.0 - - - - - - -
30/11:30am 23.6 ENE 5 6 1020.9 - 0.0 - - - - - - -
30/11:00am 22.4 NE 5 6 1021.5 - 0.0 - - - - - - -
30/10:30am 21.4 NE 5 6 1022.3 - 0.0 - - - - - - -
30/10:00am 21.0 NE 4 5 1022.7 - 0.0 - - - - - - -
30/09:30am 20.6 CALM 0 2 1022.9 - 0.0 - - - - - - -
30/09:00am 20.5 ESE 3 3 1022.9 - 0.0 - - - - - - -
30/08:30am 18.8 S 2 4 1022.9 - 0.0 - - - - - - -
30/08:00am 17.0 WSW 3 4 1022.9 - 0.0 - - - - - - -
30/07:30am 16.0 SW 4 5 1022.6 - 0.0 - - - - - - -
30/07:00am 15.0 CALM 0 3 1022.4 - 0.0 - - - - - - -
30/06:30am 14.9 CALM 0 0 1022.1 - 0.0 - - - - - - -
30/06:00am 15.0 WSW 4 4 1021.7 - 0.0 - - - - - - -
30/05:30am 15.1 CALM 0 2 1021.4 - 0.0 - - - - - - -
30/05:00am 15.2 SW 5 5 1021.4 - 0.0 - - - - - - -
30/04:30am 15.2 WSW 5 6 1021.1 - 0.0 - - - - - - -
30/04:00am 15.7 WSW 3 4 1021.2 - 0.0 - - - - - - -
30/03:30am 16.0 CALM 0 0 1021.2 - 0.0 - - - - - - -
30/03:00am 16.1 CALM 0 0 1021.2 - 0.0 - - - - - - -
30/02:30am 16.1 CALM 0 0 1021.2 - 0.0 - - - - - - -
30/02:00am 16.5 WSW 4 5 1021.5 - 0.0 - - - - - - -
30/01:30am 16.9 W 3 4 1021.8 - 0.0 - - - - - - -
30/01:00am 17.3 NNW 4 5 1022.0 - 0.0 - - - - - - -
30/12:30am 17.8 CALM 0 3 1022.0 - 0.0 - - - - - - -
30/12:00am 18.2 NNW 5 6 1022.3 - 0.0 - - - - - - -
 
Date/Time
EST
Temp

°C
Wind Pressure Rain
since 9am
mm
Weather Cloud Vis
km
Sea
Height
m
Swell
Dir
 
Speed
knots
Gust
knots
hPa Trend Height
m
Period
s
Dir
29/11:30pm 18.8 NNW 6 7 1022.6 - 0.0 - - - - - - -
29/11:00pm 18.7 NNW 5 7 1022.6 - 0.0 - - - - - - -
29/10:30pm 18.4 NNW 4 5 1022.8 - 0.0 - - - - - - -
29/10:00pm 18.6 NW 4 5 1023.0 - 0.0 - - - - - - -
29/09:30pm 18.9 NW 5 6 1022.7 - 0.0 - - - - - - -
29/09:00pm 19.3 NNW 4 5 1022.6 - 0.0 - - - - - - -
29/08:30pm 19.3 NNW 5 6 1022.9 - 0.0 - - - - - - -
29/08:00pm 19.4 NNW 5 6 1022.9 - 0.0 - - - - - - -
29/07:30pm 19.7 N 5 7 1022.9 - 0.0 - - - - - - -
29/07:00pm 20.1 N 7 9 1022.5 - 0.0 - - - - - - -
29/06:30pm 20.5 N 7 8 1022.5 - 0.0 - - - - - - -
29/06:00pm 20.6 N 7 8 1022.2 - 0.0 - - - - - - -
29/05:30pm 21.0 NNE 9 10 1021.7 - 0.0 - - - - - - -
29/05:00pm 21.1 NE 10 12 1021.5 - 0.0 - - - - - - -
29/04:30pm 21.3 NE 9 10 1021.8 - 0.0 - - - - - - -
29/04:00pm 21.4 NE 7 8 1021.8 - 0.0 - - - - - - -
29/03:30pm 22.4 NE 7 8 1021.6 - 0.0 - - - - - - -
29/03:00pm 22.1 ENE 5 7 1021.4 - 0.0 - - - - - - -
29/02:30pm 22.6 NE 5 6 1021.3 - 0.0 - - - - - - -
29/02:00pm 21.7 ENE 6 8 1021.2 - 0.0 - - - - - - -
29/01:30pm 21.9 ENE 7 8 1021.4 - 0.0 - - - - - - -
29/01:00pm 22.8 ENE 6 6 1021.6 - 0.0 - - - - - - -
29/12:30pm 23.5 SE 4 4 1022.1 - 0.0 - - - - - - -
29/12:00pm 22.2 ESE 3 4 1022.8 - 0.0 - - - - - - -
29/11:30am 21.4 ESE 4 5 1023.1 - 0.0 - - - - - - -
29/11:00am 21.0 ESE 4 5 1023.6 - 0.0 - - - - - - -
29/10:30am 21.8 ESE 5 5 1024.0 - 0.0 - - - - - - -
29/10:00am 21.2 SE 4 5 1024.2 - 0.0 - - - - - - -
29/09:30am 20.0 E 4 5 1024.4 - 0.0 - - - - - - -
29/09:00am 18.8 WNW 2 4 1024.7 - 0.0 - - - - - - -
29/08:30am 17.6 NNW 4 5 1024.7 - 0.0 - - - - - - -
29/08:00am 16.0 WNW 3 4 1024.2 - 0.0 - - - - - - -
29/07:30am 14.8 W 3 4 1024.2 - 0.0 - - - - - - -
29/07:00am 13.6 WSW 5 6 1024.0 - 0.0 - - - - - - -
29/06:30am 13.6 WSW 4 4 1023.8 - 0.0 - - - - - - -
29/06:00am 14.0 SW 1 5 1023.4 - 0.0 - - - - - - -
29/05:30am 13.8 SW 4 6 1023.6 - 0.0 - - - - - - -
29/05:00am 13.9 WSW 5 6 1023.3 - 0.0 - - - - - - -
29/04:30am 14.0 SW 5 7 1022.9 - 0.0 - - - - - - -
29/04:00am 14.3 SW 5 6 1022.8 - 0.0 - - - - - - -
29/03:30am 14.2 CALM 0 3 1022.8 - 0.0 - - - - - - -
29/03:00am 14.4 WSW 6 8 1022.9 - 0.0 - - - - - - -
29/02:30am 14.7 WSW 7 8 1023.3 - 0.0 - - - - - - -
29/02:00am 14.8 WSW 5 6 1023.1 - 0.0 - - - - - - -
29/01:30am 14.8 W 5 6 1023.4 - 0.0 - - - - - - -
29/01:00am 15.0 WSW 6 8 1023.6 - 0.0 - - - - - - -
29/12:30am 15.2 WSW 6 7 1023.6 - 0.0 - - - - - - -
29/12:00am 15.4 WSW 5 6 1023.6 - 0.0 - - - - - - -
 
Date/Time
EST
Temp

°C
Wind Pressure Rain
since 9am
mm
Weather Cloud Vis
km
Sea
Height
m
Swell
Dir
 
Speed
knots
Gust
knots
hPa Trend Height
m
Period
s
Dir
28/11:30pm 15.7 W 6 6 1024.1 - 0.0 - - - - - - -
28/11:00pm 15.9 WSW 5 6 1024.0 - 0.0 - - - - - - -
28/10:30pm 16.3 W 5 6 1024.2 - 0.0 - - - - - - -
28/10:00pm 16.4 W 4 5 1024.0 - 0.0 - - - - - - -
28/09:30pm 16.7 W 5 6 1024.1 - 0.0 - - - - - - -
28/09:00pm 16.8 WNW 5 6 1024.1 - 0.0 - - - - - - -
28/08:30pm 17.4 WNW 6 7 1024.0 - 0.0 - - - - - - -
28/08:00pm 17.8 NW 5 7 1024.1 - 0.0 - - - - - - -
28/07:30pm 18.3 N 4 5 1023.7 - 0.0 - - - - - - -
28/07:00pm 18.6 N 4 4 1023.6 - 0.0 - - - - - - -
28/06:30pm 18.8 N 4 4 1023.3 - 0.0 - - - - - - -
28/06:00pm 19.3 NE 4 5 1022.9 - 0.0 - - - - - - -
28/05:30pm 19.5 NE 5 5 1022.5 - 0.0 - - - - - - -
28/05:00pm 20.0 NE 5 6 1022.4 - 0.0 - - - - - - -
28/04:30pm 20.4 NE 6 7 1022.2 - 0.0 - - - - - - -
28/04:00pm 21.1 ENE 7 8 1022.1 - 0.0 - - - - - - -
28/03:30pm 21.5 ENE 7 8 1022.0 - 0.0 - - - - - - -
28/03:00pm 21.5 ENE 7 8 1022.1 - 0.0 - - - - - - -
28/02:30pm 21.8 ENE 8 8 1021.8 - 0.0 - - - - - - -
28/02:00pm 22.1 ENE 7 8 1022.0 - 0.0 - - - - - - -
28/01:30pm 21.6 E 7 8 1022.1 - 0.0 - - - - - - -
28/01:00pm 21.7 ESE 7 8 1022.4 - 0.0 - - - - - - -
28/12:30pm 22.5 SE 6 7 1023.4 - 0.0 - - - - - - -
28/12:00pm 21.5 SE 6 7 1023.6 - 0.0 - - - - - - -
28/11:30am 22.4 SE 7 7 1023.9 - 0.0 - - - - - - -
28/11:00am 22.1 S 7 8 1024.4 - 0.0 - - - - - - -
28/10:30am 21.6 SSE 7 8 1024.5 - 0.0 - - - - - - -
28/10:00am 20.5 S 6 7 1024.8 - 0.0 - - - - - - -
28/09:30am 19.5 S 7 8 1024.9 - 0.0 - - - - - - -
28/09:00am 18.4 SSW 8 10 1024.9 - 0.0 - - - - - - -
28/08:30am 17.2 SW 7 10 1024.7 - 0.0 - - - - - - -
28/08:00am 16.1 WSW 3 7 1024.5 - 0.0 - - - - - - -
28/07:30am 15.0 WSW 4 6 1024.4 - 0.0 - - - - - - -
28/07:00am 13.9 SW 5 6 1023.8 - 0.0 - - - - - - -
28/06:30am 13.9 SSW 5 5 1023.5 - 0.0 - - - - - - -
28/06:00am 14.0 SW 6 7 1023.4 - 0.0 - - - - - - -
28/05:30am 14.3 SW 7 8 1023.0 - 0.0 - - - - - - -
28/05:00am 14.3 SW 7 8 1022.6 - 0.0 - - - - - - -
28/04:30am 14.4 SSW 5 7 1022.7 - 0.0 - - - - - - -
28/04:00am 14.7 SW 7 9 1022.8 - 0.0 - - - - - - -
28/03:30am 14.8 SW 7 9 1022.7 - 0.0 - - - - - - -
28/03:00am 14.9 SSW 7 9 1022.6 - 0.0 - - - - - - -
28/02:30am 15.1 SW 7 8 1022.7 - 0.0 - - - - - - -
28/02:00am 14.9 SW 7 10 1022.7 - 0.0 - - - - - - -
28/01:30am 15.0 WSW 7 8 1022.8 - 0.0 - - - - - - -
28/01:00am 15.1 WSW 7 9 1023.1 - 0.0 - - - - - - -
28/12:30am 15.3 SW 8 9 1023.1 - 0.0 - - - - - - -
28/12:00am 15.5 WSW 7 9 1023.2 - 0.0 - - - - - - -
 
Date/Time
EST
Temp

°C
Wind Pressure Rain
since 9am
mm
Weather Cloud Vis
km
Sea
Height
m
Swell
Dir
 
Speed
knots
Gust
knots
hPa Trend Height
m
Period
s
Dir
27/11:30pm 15.5 WSW 7 8 1023.2 - 0.0 - - - - - - -
27/11:00pm 15.6 WSW 7 8 1023.4 - 0.0 - - - - - - -
27/10:30pm 15.9 WSW 7 8 1023.6 - 0.0 - - - - - - -
27/10:00pm 16.0 WSW 7 8 1023.5 - 0.0 - - - - - - -
27/09:30pm 16.3 CALM 0 0 1023.4 - 0.0 - - - - - - -
27/09:00pm 17.2 S 3 4 1023.5 - 0.0 - - - - - - -

Other Formats:

Comma delimited format used in spreadsheet applications
http://www.bom.gov.au/fwo/IDQ60701/IDQ60701.95591.axf

JavaScript Object Notation format (JSON) in row-major order
http://www.bom.gov.au/fwo/IDQ60701/IDQ60701.95591.json